Time;durP1;ratioP1;P1;durP2;ratioP2;P2;SDS_P1;SDS_P2;PMS_P1;PMS_P2;Temp;Humidity;BMP_temperature;BMP_pressure;BME280_temperature;BME280_humidity;BME280_pressure;Samples;Min_cycle;Max_cycle;Signal;HPM_P1;HPM_P2
2022/06/03 00:00:16;;;;;;;2.58;2.38;;;14.50;99.90;;;;;;5092013;28;20169;-52
2022/06/03 00:03:20;;;;;;;2.70;2.50;;;14.50;99.90;;;;;;5091581;28;20165;-52
2022/06/03 00:06:10;;;;;;;2.78;2.58;;;14.40;99.90;;;;;;5092188;28;20169;-53
2022/06/03 00:08:53;;;;;;;3.58;2.60;;;14.40;99.90;;;;;;5091855;28;20299;-52
2022/06/03 00:11:44;;;;;;;3.40;2.65;;;14.50;99.90;;;;;;5091979;28;20157;-50
2022/06/03 00:14:15;;;;;;;3.65;2.40;;;14.40;99.90;;;;;;5091974;28;20641;-53
2022/06/03 00:16:48;;;;;;;3.10;2.33;;;14.40;99.90;;;;;;5091847;28;20172;-52
2022/06/03 00:19:29;;;;;;;5.10;2.88;;;14.50;99.90;;;;;;5073846;28;20176;-53
2022/06/03 00:22:12;;;;;;;3.00;2.70;;;14.40;99.90;;;;;;5092101;28;20169;-50
2022/06/03 00:25:27;;;;;;;3.80;2.58;;;14.40;99.90;;;;;;5091914;28;20578;-49
2022/06/03 00:28:30;;;;;;;2.85;2.58;;;14.30;99.90;;;;;;5047621;28;20294;-51
2022/06/03 00:31:18;;;;;;;2.55;2.35;;;14.30;99.90;;;;;;5092112;28;20166;-53
2022/06/03 00:34:06;;;;;;;2.63;2.42;;;14.20;99.90;;;;;;5092045;28;20249;-49
2022/06/03 00:37:00;;;;;;;2.97;2.53;;;14.20;99.90;;;;;;5091669;28;20613;-52
2022/06/03 00:39:55;;;;;;;2.60;2.40;;;14.20;99.90;;;;;;5091895;28;20240;-52
2022/06/03 00:42:33;;;;;;;2.90;2.58;;;14.30;99.90;;;;;;5091672;28;20586;-51
2022/06/03 00:45:21;;;;;;;7.93;3.10;;;14.30;99.90;;;;;;5091667;28;20568;-51
2022/06/03 00:48:10;;;;;;;3.30;3.00;;;14.30;99.90;;;;;;5091516;28;20685;-50
2022/06/03 00:50:56;;;;;;;3.00;2.72;;;14.30;99.90;;;;;;5091527;28;20176;-52
2022/06/03 00:53:33;;;;;;;6.97;4.07;;;14.30;99.90;;;;;;5092836;28;20705;-52
2022/06/03 00:56:17;;;;;;;5.28;3.72;;;14.20;99.90;;;;;;5095287;28;20177;-52
2022/06/03 00:59:13;;;;;;;4.32;3.63;;;14.20;99.90;;;;;;5095158;28;20222;-49
2022/06/03 01:01:52;;;;;;;5.07;3.40;;;14.20;99.90;;;;;;5095484;28;20169;-53
2022/06/03 01:04:26;;;;;;;6.22;3.72;;;14.20;99.90;;;;;;5095104;28;20203;-50
2022/06/03 01:07:01;;;;;;;4.25;3.85;;;14.10;99.90;;;;;;5094988;28;20244;-52
2022/06/03 01:09:26;;;;;;;9.52;5.57;;;14.00;99.90;;;;;;5095464;28;20201;-51
2022/06/03 01:12:06;;;;;;;10.00;6.15;;;14.00;99.90;;;;;;5095239;28;20168;-51
2022/06/03 01:15:09;;;;;;;8.43;6.20;;;14.00;99.90;;;;;;5094893;28;20219;-50
2022/06/03 01:17:49;;;;;;;8.68;5.88;;;14.00;99.90;;;;;;5095113;28;20172;-52
2022/06/03 01:20:42;;;;;;;5.00;3.95;;;14.00;99.90;;;;;;5094792;28;20200;-50
2022/06/03 01:23:19;;;;;;;3.85;3.10;;;14.00;99.90;;;;;;5095004;28;20166;-50
2022/06/03 01:26:03;;;;;;;3.60;3.30;;;13.80;99.90;;;;;;5094764;28;20183;-50
2022/06/03 01:29:06;;;;;;;3.78;3.03;;;13.80;99.90;;;;;;5094509;28;20536;-49
2022/06/03 01:31:52;;;;;;;3.85;2.80;;;13.70;99.90;;;;;;5076442;28;20169;-50
2022/06/03 01:34:56;;;;;;;4.15;2.60;;;13.70;99.90;;;;;;5094756;28;20521;-52
2022/06/03 01:37:29;;;;;;;3.33;3.03;;;13.70;99.90;;;;;;5094460;28;20524;-52
2022/06/03 01:40:02;;;;;;;3.38;2.75;;;13.60;99.90;;;;;;5094627;28;20690;-53
2022/06/03 01:43:07;;;;;;;3.47;3.17;;;13.50;99.90;;;;;;5094719;28;20189;-52
2022/06/03 01:45:35;;;;;;;3.42;3.13;;;13.40;99.90;;;;;;5094337;28;20165;-53
2022/06/03 01:48:17;;;;;;;3.20;2.90;;;13.30;99.90;;;;;;5094309;28;20232;-52
2022/06/03 01:51:16;;;;;;;2.88;2.60;;;13.10;99.90;;;;;;5094191;28;20157;-51
2022/06/03 01:54:19;;;;;;;3.47;3.17;;;13.10;99.90;;;;;;5094177;28;20650;-50
2022/06/03 01:57:09;;;;;;;3.17;2.88;;;13.10;99.90;;;;;;5094128;28;20670;-53
2022/06/03 01:59:50;;;;;;;4.38;2.90;;;13.10;99.90;;;;;;5094298;28;20173;-52
2022/06/03 02:02:46;;;;;;;4.47;2.88;;;13.00;99.90;;;;;;5094277;28;20180;-53
2022/06/03 02:05:48;;;;;;;3.55;3.25;;;13.00;99.90;;;;;;5093609;28;20172;-51
2022/06/03 02:08:25;;;;;;;3.75;2.85;;;13.00;99.90;;;;;;5094068;28;20199;-50
2022/06/03 02:11:01;;;;;;;4.97;3.20;;;13.00;99.90;;;;;;5093837;28;20302;-50
2022/06/03 02:14:12;;;;;;;3.05;2.85;;;13.10;99.90;;;;;;5094031;28;20169;-50
2022/06/03 02:17:07;;;;;;;3.50;3.20;;;13.10;99.90;;;;;;5093794;28;20196;-49
2022/06/03 02:19:52;;;;;;;4.07;3.20;;;13.10;99.90;;;;;;5093718;28;20209;-50
2022/06/03 02:22:29;;;;;;;3.50;3.20;;;13.00;99.90;;;;;;5093613;28;20727;-49
2022/06/03 02:25:09;;;;;;;3.67;3.38;;;13.00;99.90;;;;;;5093853;28;20157;-51
2022/06/03 02:27:43;;;;;;;3.83;3.10;;;13.00;99.90;;;;;;5093751;28;20512;-52
2022/06/03 02:30:49;;;;;;;4.05;3.10;;;13.00;99.90;;;;;;5093478;28;20187;-50
2022/06/03 02:33:53;;;;;;;4.57;3.00;;;12.90;99.90;;;;;;5093420;28;20192;-52
2022/06/03 02:36:47;;;;;;;3.22;2.92;;;12.90;99.90;;;;;;5093636;28;20169;-48
2022/06/03 02:39:31;;;;;;;2.92;2.63;;;12.90;99.90;;;;;;5093285;28;20699;-50
2022/06/03 02:42:27;;;;;;;7.35;3.45;;;13.00;99.90;;;;;;5093575;28;20177;-52
2022/06/03 02:45:14;;;;;;;3.63;2.63;;;12.90;99.90;;;;;;5093438;28;20161;-50
2022/06/03 02:48:07;;;;;;;4.55;3.00;;;12.90;99.90;;;;;;5093081;28;20161;-49
2022/06/03 02:50:51;;;;;;;3.80;2.75;;;12.90;99.90;;;;;;5093155;28;20170;-48
2022/06/03 02:53:38;;;;;;;4.97;3.17;;;12.90;99.90;;;;;;5092950;28;20220;-51
2022/06/03 02:56:33;;;;;;;2.95;2.65;;;12.80;99.90;;;;;;5092922;28;20165;-52
2022/06/03 02:59:35;;;;;;;2.67;2.47;;;12.70;99.90;;;;;;5090127;28;20180;-49
2022/06/03 03:02:20;;;;;;;3.20;2.90;;;12.70;99.90;;;;;;5092902;28;20161;-52
2022/06/03 03:05:23;;;;;;;4.88;2.85;;;12.70;99.90;;;;;;5092818;28;20194;-53
2022/06/03 03:08:20;;;;;;;3.30;2.65;;;12.60;99.90;;;;;;5092675;28;20303;-49
2022/06/03 03:11:08;;;;;;;3.80;2.80;;;12.60;99.90;;;;;;5092721;28;20586;-49
2022/06/03 03:14:00;;;;;;;3.20;2.80;;;12.50;99.90;;;;;;5045656;28;20231;-52
2022/06/03 03:16:54;;;;;;;3.13;2.83;;;12.60;99.90;;;;;;5092128;28;20173;-48
2022/06/03 03:19:56;;;;;;;3.20;2.83;;;12.50;99.90;;;;;;5089465;28;20516;-53
2022/06/03 03:22:35;;;;;;;4.35;3.35;;;12.50;99.90;;;;;;5092504;28;20197;-49
2022/06/03 03:25:29;;;;;;;3.10;2.80;;;12.50;99.90;;;;;;5092417;28;20183;-49
2022/06/03 03:28:34;;;;;;;3.30;3.00;;;12.50;99.90;;;;;;5092590;28;20212;-52
2022/06/03 03:31:18;;;;;;;3.35;2.70;;;12.50;99.90;;;;;;5092461;28;20248;-50
2022/06/03 03:33:57;;;;;;;3.47;2.95;;;12.40;99.90;;;;;;5074138;28;20165;-51
2022/06/03 03:36:38;;;;;;;3.30;2.95;;;12.50;99.90;;;;;;5092703;28;20153;-51
2022/06/03 03:39:07;;;;;;;3.35;3.05;;;12.40;99.90;;;;;;5074160;28;20169;-52
2022/06/03 03:42:11;;;;;;;2.95;2.63;;;12.50;99.90;;;;;;5092239;28;20161;-53
2022/06/03 03:44:49;;;;;;;3.90;3.15;;;12.50;99.90;;;;;;5092520;28;20199;-52
2022/06/03 03:47:39;;;;;;;6.50;3.25;;;12.50;99.90;;;;;;5092129;28;20168;-52
2022/06/03 03:50:22;;;;;;;4.82;3.10;;;12.60;99.90;;;;;;5092118;28;20225;-53
2022/06/03 03:53:29;;;;;;;3.13;2.63;;;12.60;99.90;;;;;;5091991;28;20697;-53
2022/06/03 03:56:56;;;;;;;3.38;3.08;;;12.50;99.90;;;;;;5092527;28;20165;-52
2022/06/03 03:59:44;;;;;;;4.28;2.80;;;12.50;99.90;;;;;;4990396;28;20177;-51
2022/06/03 04:02:24;;;;;;;3.20;2.90;;;12.60;99.90;;;;;;4972589;28;20646;-50
2022/06/03 04:05:17;;;;;;;3.15;2.90;;;12.60;99.90;;;;;;5080067;28;20226;-52
2022/06/03 04:08:18;;;;;;;6.07;3.17;;;12.60;99.90;;;;;;5091765;28;20165;-52
2022/06/03 04:10:54;;;;;;;3.20;2.90;;;12.60;99.90;;;;;;5091929;28;20169;-51
2022/06/03 04:13:53;;;;;;;3.78;3.03;;;12.60;99.90;;;;;;5091870;28;20248;-52
2022/06/03 04:16:37;;;;;;;3.80;2.58;;;12.60;99.90;;;;;;5091864;28;20172;-52
2022/06/03 04:19:55;;;;;;;3.30;3.00;;;12.60;99.90;;;;;;5091843;28;20193;-52
2022/06/03 04:22:23;;;;;;;3.17;2.97;;;12.60;99.90;;;;;;5091872;28;20176;-52
2022/06/03 04:25:21;;;;;;;3.60;2.80;;;12.60;99.90;;;;;;5091720;28;20169;-51
2022/06/03 04:28:10;;;;;;;3.38;3.03;;;12.70;99.90;;;;;;5093750;28;20177;-48
2022/06/03 04:31:06;;;;;;;8.73;3.25;;;12.70;99.90;;;;;;5095763;28;20222;-51
2022/06/03 04:34:09;;;;;;;7.80;3.38;;;13.00;99.90;;;;;;5095625;28;20169;-52
2022/06/03 04:36:43;;;;;;;4.85;3.03;;;13.20;99.90;;;;;;5095752;28;20531;-51
2022/06/03 04:39:49;;;;;;;6.07;2.53;;;13.50;99.90;;;;;;5077422;28;20169;-50
2022/06/03 04:42:24;;;;;;;5.80;2.75;;;13.80;99.90;;;;;;5095604;28;20563;-50
2022/06/03 04:45:11;;;;;;;3.08;2.63;;;13.90;99.90;;;;;;5095361;28;20540;-52
2022/06/03 04:47:58;;;;;;;4.50;2.80;;;14.10;99.90;;;;;;5095376;28;20631;-52
2022/06/03 04:50:35;;;;;;;4.00;2.80;;;14.20;99.90;;;;;;5095933;28;20210;-50
2022/06/03 04:53:47;;;;;;;3.60;2.53;;;14.40;99.90;;;;;;5095225;28;20232;-52
2022/06/03 04:56:30;;;;;;;5.03;3.08;;;14.40;99.90;;;;;;5095253;28;20173;-52
2022/06/03 04:59:17;;;;;;;3.10;2.72;;;14.70;99.90;;;;;;5095662;28;20170;-52
2022/06/03 05:02:15;;;;;;;2.38;2.13;;;14.90;99.90;;;;;;5095332;28;20220;-50
2022/06/03 05:05:06;;;;;;;2.60;2.40;;;15.00;99.90;;;;;;5095144;28;20168;-50
2022/06/03 05:08:00;;;;;;;2.63;2.42;;;15.00;99.90;;;;;;5094969;28;20165;-50
2022/06/03 05:10:59;;;;;;;4.45;2.63;;;15.20;99.90;;;;;;5095365;28;20219;-50
2022/06/03 05:13:43;;;;;;;2.55;2.30;;;15.40;99.90;;;;;;5095266;28;20162;-49
2022/06/03 05:16:21;;;;;;;4.97;2.50;;;15.50;99.90;;;;;;5095189;28;20169;-53
2022/06/03 05:18:55;;;;;;;4.95;2.60;;;15.60;99.90;;;;;;5094952;28;20172;-52
2022/06/03 05:21:24;;;;;;;5.60;2.20;;;15.70;99.90;;;;;;5094856;28;20569;-53
2022/06/03 05:23:58;;;;;;;3.38;2.15;;;15.80;99.90;;;;;;5094788;28;20165;-52
2022/06/03 05:26:27;;;;;;;2.72;2.00;;;15.90;99.90;;;;;;5095287;28;20172;-54
2022/06/03 05:29:06;;;;;;;2.28;1.88;;;15.90;99.90;;;;;;5095134;28;20205;-50
2022/06/03 05:32:21;;;;;;;2.35;1.98;;;16.00;99.90;;;;;;5094648;28;20165;-49
2022/06/03 05:35:09;;;;;;;3.35;1.70;;;16.10;99.90;;;;;;5094566;28;20168;-51
2022/06/03 05:37:59;;;;;;;2.17;1.98;;;16.20;99.90;;;;;;5094465;28;20166;-50
2022/06/03 05:40:55;;;;;;;2.10;1.80;;;16.20;99.90;;;;;;5094119;28;20647;-48
2022/06/03 05:43:40;;;;;;;3.05;1.80;;;16.30;99.90;;;;;;5094420;28;20169;-48
2022/06/03 05:46:14;;;;;;;2.85;1.90;;;16.50;99.90;;;;;;5094265;28;20649;-50
2022/06/03 05:49:04;;;;;;;4.13;2.20;;;16.60;99.90;;;;;;5094076;28;20201;-52
2022/06/03 05:52:04;;;;;;;2.30;2.10;;;16.50;99.90;;;;;;5094048;28;20534;-51
2022/06/03 05:54:50;;;;;;;1.60;1.50;;;16.40;99.90;;;;;;5094255;28;20197;-49
2022/06/03 05:57:38;;;;;;;2.22;1.98;;;16.40;99.90;;;;;;5094321;28;20180;-51
2022/06/03 06:00:16;;;;;;;4.53;2.13;;;16.50;99.90;;;;;;5094501;28;20664;-50
2022/06/03 06:03:05;;;;;;;5.57;2.33;;;16.50;99.90;;;;;;5094335;28;20537;-51
2022/06/03 06:06:04;;;;;;;2.70;2.03;;;16.70;99.90;;;;;;5093897;28;20162;-51
2022/06/03 06:08:50;;;;;;;2.05;1.90;;;16.60;99.90;;;;;;5094095;28;20201;-52
2022/06/03 06:11:17;;;;;;;2.05;1.85;;;16.50;99.90;;;;;;5094090;28;20239;-48
2022/06/03 06:13:57;;;;;;;2.72;2.03;;;16.70;99.90;;;;;;5093783;28;20169;-52
2022/06/03 06:16:35;;;;;;;3.20;2.10;;;16.80;99.90;;;;;;5094031;28;20161;-51
2022/06/03 06:19:27;;;;;;;3.42;2.40;;;17.00;99.90;;;;;;5093657;28;20169;-52
2022/06/03 06:21:58;;;;;;;2.38;2.15;;;17.00;99.90;;;;;;5094263;28;20184;-52
2022/06/03 06:24:29;;;;;;;2.83;2.15;;;17.10;99.90;;;;;;5093913;28;20162;-51
2022/06/03 06:27:38;;;;;;;2.85;2.13;;;17.10;99.90;;;;;;5093855;28;20157;-52
2022/06/03 06:30:59;;;;;;;3.33;2.28;;;17.10;99.90;;;;;;5093459;28;20261;-48
2022/06/03 06:33:40;;;;;;;2.53;2.05;;;17.10;99.90;;;;;;4992123;28;20183;-49
2022/06/03 06:36:30;;;;;;;2.83;2.33;;;17.20;99.90;;;;;;4976981;28;20176;-49
2022/06/03 06:39:33;;;;;;;2.65;1.90;;;17.60;99.90;;;;;;5078552;28;20178;-47
2022/06/03 06:42:22;;;;;;;3.67;1.80;;;17.60;99.90;;;;;;5075027;28;20204;-50
2022/06/03 06:45:28;;;;;;;4.43;2.25;;;17.70;99.90;;;;;;5093185;28;20169;-49
2022/06/03 06:48:19;;;;;;;1.70;1.60;;;17.70;99.90;;;;;;5093387;28;20503;-47
2022/06/03 06:50:49;;;;;;;3.40;2.08;;;17.70;99.90;;;;;;5093071;28;20240;-49
2022/06/03 06:53:49;;;;;;;4.35;2.35;;;17.90;99.90;;;;;;5092890;28;20221;-47
2022/06/03 06:56:38;;;;;;;2.33;1.90;;;18.00;99.90;;;;;;5088014;28;20208;-48
2022/06/03 06:59:13;;;;;;;2.03;1.77;;;18.10;99.90;;;;;;5092942;28;20162;-49
2022/06/03 07:01:48;;;;;;;4.60;2.22;;;18.00;99.90;;;;;;5092869;28;20197;-51
2022/06/03 07:04:21;;;;;;;1.77;1.60;;;18.10;99.90;;;;;;5092821;28;20172;-48
2022/06/03 07:06:53;;;;;;;2.80;1.98;;;18.20;99.90;;;;;;5092697;28;20165;-51
2022/06/03 07:09:33;;;;;;;3.10;1.90;;;18.10;99.90;;;;;;5092624;28;20211;-48
2022/06/03 07:12:15;;;;;;;2.50;2.20;;;18.40;99.90;;;;;;5092703;28;20641;-48
2022/06/03 07:14:43;;;;;;;2.58;2.38;;;18.70;99.90;;;;;;5092631;28;20173;-52
2022/06/03 07:20:40;;;;;;;8.45;5.38;;;18.80;99.90;;;;;;5092504;28;20238;-50
2022/06/03 07:23:11;;;;;;;4.07;2.50;;;18.90;99.90;;;;;;5092543;28;20164;-50
2022/06/03 07:25:58;;;;;;;5.53;3.25;;;19.00;99.90;;;;;;5092717;28;20169;-51
2022/06/03 07:28:40;;;;;;;9.95;6.00;;;18.80;99.90;;;;;;5092564;28;20687;-51
2022/06/03 07:31:20;;;;;;;1.92;1.70;;;19.00;99.90;;;;;;5092386;28;20170;-50
2022/06/03 07:34:14;;;;;;;4.38;1.75;;;19.20;99.90;;;;;;5092412;28;20500;-50
2022/06/03 07:36:40;;;;;;;4.30;1.90;;;19.30;99.90;;;;;;5092387;28;20677;-52
2022/06/03 07:39:38;;;;;;;9.35;4.93;;;19.30;99.90;;;;;;5092303;28;20165;-51
2022/06/03 07:42:24;;;;;;;3.42;2.17;;;19.50;99.90;;;;;;5092269;28;20226;-50
2022/06/03 07:45:31;;;;;;;4.00;1.80;;;19.60;99.90;;;;;;5092227;28;20635;-48
2022/06/03 07:48:00;;;;;;;6.22;2.90;;;19.60;99.90;;;;;;5057755;28;20187;-46
2022/06/03 07:50:28;;;;;;;3.63;2.25;;;19.80;99.90;;;;;;5092441;28;20165;-47
2022/06/03 07:53:15;;;;;;;6.13;3.92;;;19.90;99.90;;;;;;5092288;28;20217;-47
2022/06/03 07:55:40;;;;;;;2.83;2.40;;;19.90;99.90;;;;;;5092075;28;20172;-47
2022/06/03 07:58:08;;;;;;;3.25;1.98;;;20.00;99.90;;;;;;5092120;28;20169;-47
2022/06/03 08:00:37;;;;;;;5.85;3.60;;;20.30;99.90;;;;;;5092274;28;20529;-48
2022/06/03 08:03:23;;;;;;;4.13;2.22;;;20.00;99.90;;;;;;5091613;28;20165;-47
2022/06/03 08:05:58;;;;;;;3.45;1.90;;;20.20;99.90;;;;;;5073837;28;20180;-47
2022/06/03 08:11:33;;;;;;;2.58;1.73;;;20.20;99.90;;;;;;5090027;28;20714;-46
2022/06/03 08:14:01;;;;;;;1.52;1.42;;;20.50;99.90;;;;;;5081212;28;20247;-48
2022/06/03 08:16:38;;;;;;;3.60;1.90;;;20.70;99.90;;;;;;5090994;28;20192;-48
2022/06/03 08:19:17;;;;;;;3.20;1.80;;;20.90;99.90;;;;;;5091020;28;20195;-47
2022/06/03 08:21:52;;;;;;;9.98;6.00;;;20.70;99.90;;;;;;5088779;28;20305;-47
2022/06/03 08:24:30;;;;;;;4.82;1.95;;;21.00;99.90;;;;;;5089180;28;20566;-46
2022/06/03 08:27:02;;;;;;;3.47;1.88;;;20.90;99.90;;;;;;5091961;28;20183;-48
2022/06/03 08:29:46;;;;;;;7.47;4.03;;;20.90;99.90;;;;;;5091390;28;20220;-47
2022/06/03 08:32:19;;;;;;;2.95;1.98;;;21.00;99.90;;;;;;5091739;28;20544;-47
2022/06/03 08:34:48;;;;;;;4.00;1.70;;;21.00;99.90;;;;;;5073659;28;20219;-48
2022/06/03 08:37:21;;;;;;;4.68;2.28;;;21.00;99.90;;;;;;5091934;28;20157;-48
2022/06/03 08:39:48;;;;;;;3.03;1.73;;;20.90;99.90;;;;;;5091600;28;20169;-48
2022/06/03 08:42:28;;;;;;;12.45;7.22;;;21.10;99.90;;;;;;5091565;28;20165;-47
2022/06/03 08:45:11;;;;;;;5.15;1.80;;;21.20;99.90;;;;;;5091217;28;20658;-48
2022/06/03 08:47:49;;;;;;;57.13;33.55;;;21.30;99.90;;;;;;5090677;28;20173;-50
2022/06/03 08:50:53;;;;;;;2.15;1.95;;;21.40;99.90;;;;;;5090082;28;20181;-50
2022/06/03 08:53:50;;;;;;;3.00;1.40;;;21.40;99.90;;;;;;5088444;28;20262;-48
2022/06/03 08:56:21;;;;;;;1.77;1.65;;;21.50;99.90;;;;;;5017801;28;20276;-50
2022/06/03 08:58:58;;;;;;;4.35;1.65;;;21.60;99.90;;;;;;5091469;28;20165;-50
2022/06/03 09:01:47;;;;;;;5.32;4.88;;;21.60;99.90;;;;;;5091765;28;20172;-50
2022/06/03 09:04:22;;;;;;;18.75;14.63;;;21.70;99.90;;;;;;5091480;28;20168;-51
2022/06/03 09:07:18;;;;;;;5.55;3.25;;;21.90;99.90;;;;;;5073261;28;20534;-51
2022/06/03 09:10:02;;;;;;;2.75;1.90;;;22.00;99.90;;;;;;5091203;28;20293;-52
2022/06/03 09:12:40;;;;;;;1.90;1.80;;;22.10;99.90;;;;;;5091699;28;20166;-52
2022/06/03 09:15:11;;;;;;;4.35;2.40;;;22.50;99.90;;;;;;5093739;28;20192;-52
2022/06/03 09:17:54;;;;;;;4.05;1.80;;;22.80;99.90;;;;;;5095098;28;20166;-52
2022/06/03 09:20:34;;;;;;;3.75;2.08;;;23.10;99.90;;;;;;5094832;28;20162;-52
2022/06/03 09:23:19;;;;;;;2.88;1.73;;;23.00;99.90;;;;;;5094753;28;20244;-52
2022/06/03 09:25:49;;;;;;;2.40;1.83;;;22.90;99.90;;;;;;5094733;28;20188;-50
2022/06/03 09:28:21;;;;;;;4.88;2.08;;;22.70;99.90;;;;;;5094191;28;20193;-52
2022/06/03 09:30:49;;;;;;;4.25;2.17;;;22.80;99.90;;;;;;5094488;28;20167;-50
2022/06/03 09:33:18;;;;;;;5.07;2.38;;;22.70;99.90;;;;;;5094680;28;20170;-51
2022/06/03 09:35:47;;;;;;;4.68;2.42;;;22.70;99.90;;;;;;5076536;28;20161;-51
2022/06/03 09:38:16;;;;;;;2.45;2.10;;;22.80;99.90;;;;;;5094548;28;20641;-48
2022/06/03 09:40:45;;;;;;;2.33;1.98;;;22.70;99.90;;;;;;5094522;28;20202;-47
2022/06/03 09:43:23;;;;;;;3.17;1.95;;;23.00;99.90;;;;;;5094450;28;20249;-47
2022/06/03 09:45:53;;;;;;;4.72;2.28;;;23.30;99.90;;;;;;5094408;28;20244;-47
2022/06/03 09:48:22;;;;;;;5.55;2.45;;;23.40;99.90;;;;;;5094256;28;20200;-47
2022/06/03 09:50:50;;;;;;;2.65;2.08;;;23.30;99.90;;;;;;5094638;28;20200;-47
2022/06/03 09:53:19;;;;;;;2.00;1.75;;;23.30;99.90;;;;;;5093896;28;20225;-47
2022/06/03 09:55:57;;;;;;;4.25;2.00;;;23.70;99.90;;;;;;5094173;28;20164;-49
2022/06/03 09:58:28;;;;;;;5.65;2.00;;;23.70;99.50;;;;;;5094113;28;20184;-48
2022/06/03 10:00:56;;;;;;;4.75;2.22;;;23.70;97.80;;;;;;5094408;28;20161;-48
2022/06/03 10:03:24;;;;;;;3.70;2.10;;;23.60;98.00;;;;;;5093945;28;20194;-48
2022/06/03 10:05:53;;;;;;;4.28;1.92;;;23.70;97.40;;;;;;5094170;28;20169;-48
2022/06/03 10:08:22;;;;;;;2.75;1.90;;;23.60;96.60;;;;;;5094080;28;20200;-51
2022/06/03 10:13:38;;;;;;;3.47;2.00;;;23.80;96.30;;;;;;5094109;28;20215;-51
2022/06/03 10:16:07;;;;;;;5.50;2.25;;;23.70;96.20;;;;;;5093960;28;20256;-52
2022/06/03 10:18:42;;;;;;;2.72;2.00;;;24.30;96.50;;;;;;5093707;28;20204;-52
2022/06/03 10:21:07;;;;;;;3.58;1.95;;;24.50;96.20;;;;;;5093606;28;20180;-51
2022/06/03 10:23:36;;;;;;;2.80;1.60;;;24.60;95.00;;;;;;5093677;28;20177;-52
2022/06/03 10:26:04;;;;;;;2.03;1.50;;;24.70;93.90;;;;;;5075373;28;20645;-51
2022/06/03 10:28:35;;;;;;;3.08;1.70;;;24.80;92.80;;;;;;5093685;28;20209;-49
2022/06/03 10:31:05;;;;;;;2.78;1.45;;;25.00;91.60;;;;;;5093710;28;20176;-52
2022/06/03 10:33:32;;;;;;;1.98;1.50;;;24.90;91.60;;;;;;5093660;28;20172;-52
2022/06/03 10:35:59;;;;;;;3.05;1.85;;;24.80;92.60;;;;;;5093624;28;20164;-51
2022/06/03 10:38:29;;;;;;;1.90;1.70;;;24.70;92.30;;;;;;5093762;28;20157;-50
2022/06/03 10:40:55;;;;;;;2.17;1.70;;;24.40;92.20;;;;;;5093641;28;20266;-49
2022/06/03 10:43:30;;;;;;;2.60;1.40;;;24.50;92.50;;;;;;5093500;28;20177;-51
2022/06/03 10:46:14;;;;;;;2.17;1.67;;;24.80;92.30;;;;;;5093774;28;20248;-52
2022/06/03 10:48:40;;;;;;;2.75;1.58;;;25.00;92.50;;;;;;5093409;28;20200;-51
2022/06/03 11:02:38;;;;;;;3.35;2.20;;;25.50;92.00;;;;;;5093166;28;20202;-47
2022/06/03 11:05:28;;;;;;;2.40;1.77;;;25.60;90.60;;;;;;5092839;28;20157;-47
2022/06/03 11:07:57;;;;;;;2.17;1.90;;;25.40;92.00;;;;;;5093097;28;20169;-47
2022/06/03 11:10:28;;;;;;;3.67;1.90;;;25.50;92.10;;;;;;5092788;28;20157;-49
2022/06/03 11:13:01;;;;;;;3.60;1.80;;;25.60;92.00;;;;;;5092934;28;20598;-48
2022/06/03 11:15:35;;;;;;;2.65;1.90;;;25.60;91.40;;;;;;5093025;28;20704;-52
2022/06/03 11:18:19;;;;;;;1.83;1.73;;;25.60;91.40;;;;;;5092665;28;20239;-49
2022/06/03 11:20:48;;;;;;;2.17;1.60;;;25.70;90.80;;;;;;5092884;28;20172;-48
2022/06/03 11:23:14;;;;;;;4.00;1.75;;;26.00;91.10;;;;;;5092513;28;20169;-47
2022/06/03 11:25:46;;;;;;;2.30;1.83;;;26.20;91.00;;;;;;5092563;28;20169;-50
2022/06/03 11:28:39;;;;;;;3.13;1.70;;;26.00;90.60;;;;;;5092319;28;20206;-48
2022/06/03 11:31:14;;;;;;;2.20;1.52;;;25.60;90.20;;;;;;5062582;28;20212;-50
2022/06/03 11:33:46;;;;;;;2.97;1.95;;;25.60;90.40;;;;;;5092371;28;20161;-47
2022/06/03 11:36:38;;;;;;;1.92;1.63;;;25.60;90.50;;;;;;5092027;28;20197;-48
2022/06/03 11:39:27;;;;;;;2.60;1.63;;;25.80;91.30;;;;;;5092427;28;20665;-48
2022/06/03 11:42:01;;;;;;;4.00;1.90;;;25.60;91.50;;;;;;5092349;28;20630;-49
2022/06/03 11:44:39;;;;;;;4.53;1.83;;;25.60;91.00;;;;;;5092572;28;20161;-47
2022/06/03 11:47:14;;;;;;;3.90;1.92;;;25.70;91.10;;;;;;5092262;28;20157;-48
2022/06/03 11:49:39;;;;;;;4.22;2.05;;;26.00;90.60;;;;;;5092056;28;20227;-49
2022/06/03 11:52:05;;;;;;;4.47;2.20;;;25.90;91.00;;;;;;5092055;28;20259;-51
2022/06/03 11:54:31;;;;;;;4.82;1.98;;;25.60;90.40;;;;;;5092109;28;20567;-52
2022/06/03 11:57:02;;;;;;;2.70;1.98;;;25.80;91.40;;;;;;5092617;28;20209;-52
2022/06/03 11:59:54;;;;;;;3.10;1.80;;;25.80;91.80;;;;;;5092335;28;20215;-52
2022/06/03 12:02:38;;;;;;;7.82;2.08;;;25.90;91.30;;;;;;5088103;28;20688;-51
2022/06/03 12:05:10;;;;;;;2.45;1.95;;;26.00;91.30;;;;;;5092013;28;20168;-52
2022/06/03 12:08:07;;;;;;;7.07;2.13;;;25.80;90.40;;;;;;5091925;28;20166;-52
2022/06/03 12:10:56;;;;;;;3.50;1.83;;;25.90;90.30;;;;;;5091902;28;20177;-52
2022/06/03 12:13:28;;;;;;;6.10;2.15;;;26.20;90.90;;;;;;5091939;28;20230;-52
2022/06/03 12:15:53;;;;;;;2.50;2.05;;;26.20;91.70;;;;;;5092251;28;20621;-52
2022/06/03 12:18:55;;;;;;;5.40;2.20;;;26.50;90.60;;;;;;5073702;28;20177;-52
2022/06/03 12:21:44;;;;;;;3.25;2.00;;;26.90;91.00;;;;;;5066629;28;20172;-53
2022/06/03 12:24:20;;;;;;;6.53;1.92;;;27.20;90.20;;;;;;5091718;28;20248;-52
2022/06/03 12:26:49;;;;;;;7.15;2.00;;;27.10;90.20;;;;;;5091706;28;20172;-52
2022/06/03 12:29:32;;;;;;;3.05;2.15;;;27.20;90.30;;;;;;5091914;28;20255;-52
2022/06/03 12:32:13;;;;;;;3.03;2.28;;;27.10;88.90;;;;;;5092044;28;20157;-51
2022/06/03 12:34:39;;;;;;;5.47;1.90;;;27.10;88.90;;;;;;5092003;28;20172;-52
2022/06/03 12:37:27;;;;;;;2.85;1.70;;;27.00;87.90;;;;;;5091609;28;20215;-52
2022/06/03 12:39:55;;;;;;;4.43;1.98;;;26.80;88.40;;;;;;5092151;28;20173;-51
2022/06/03 12:42:27;;;;;;;2.45;1.95;;;26.90;88.20;;;;;;5091636;28;20236;-50
2022/06/03 12:45:03;;;;;;;4.47;2.17;;;26.60;90.90;;;;;;5092226;28;20173;-49
2022/06/03 12:47:31;;;;;;;5.53;2.10;;;26.70;92.00;;;;;;5073561;28;20194;-47
2022/06/03 12:50:31;;;;;;;5.22;2.03;;;27.00;92.30;;;;;;5095675;28;20261;-50
2022/06/03 12:53:02;;;;;;;2.38;1.80;;;27.10;92.20;;;;;;5095440;28;20250;-49
2022/06/03 12:55:32;;;;;;;4.05;1.90;;;27.00;92.10;;;;;;5095757;28;20564;-51
2022/06/03 12:58:23;;;;;;;3.00;2.30;;;26.80;93.20;;;;;;5095565;28;20171;-47
2022/06/03 13:00:55;;;;;;;2.65;1.77;;;26.80;92.80;;;;;;5095113;28;20179;-52
2022/06/03 13:03:24;;;;;;;2.72;1.90;;;26.90;92.20;;;;;;5095488;28;20160;-50
2022/06/03 13:05:51;;;;;;;3.10;1.85;;;26.90;92.60;;;;;;5095169;28;20169;-48
2022/06/03 13:08:28;;;;;;;2.30;2.10;;;26.80;92.20;;;;;;5095012;28;20223;-49
2022/06/03 13:11:03;;;;;;;1.95;1.75;;;26.70;92.50;;;;;;5095526;28;20170;-48
2022/06/03 13:13:34;;;;;;;3.60;2.10;;;26.50;93.80;;;;;;5095051;28;20641;-48
2022/06/03 13:16:00;;;;;;;4.07;1.90;;;26.20;92.90;;;;;;5095282;28;20535;-49
2022/06/03 13:18:40;;;;;;;5.10;1.92;;;26.30;93.10;;;;;;5095287;28;20161;-50
2022/06/03 13:21:06;;;;;;;7.50;2.30;;;26.50;93.20;;;;;;5095158;28;20167;-49
2022/06/03 13:23:46;;;;;;;2.67;1.80;;;26.60;93.30;;;;;;5076616;28;20165;-49
2022/06/03 13:26:21;;;;;;;3.83;2.08;;;26.50;93.30;;;;;;5094766;28;20172;-48
2022/06/03 13:28:53;;;;;;;3.30;2.10;;;26.60;92.80;;;;;;5094874;28;20203;-50
2022/06/03 13:31:47;;;;;;;3.53;2.05;;;26.70;93.10;;;;;;5094890;28;20169;-50
2022/06/03 13:34:27;;;;;;;3.45;2.30;;;27.00;93.30;;;;;;5094483;28;20245;-49
2022/06/03 13:36:54;;;;;;;4.63;2.00;;;26.90;92.10;;;;;;5094472;28;20176;-49
2022/06/03 13:39:28;;;;;;;4.18;2.25;;;26.90;91.50;;;;;;5094565;28;20164;-50
2022/06/03 13:44:40;;;;;;;3.20;2.10;;;27.00;91.30;;;;;;5094710;28;20168;-50
2022/06/03 13:47:19;;;;;;;9.00;2.72;;;27.10;91.50;;;;;;5094426;28;20165;-50
2022/06/03 13:49:57;;;;;;;5.32;2.15;;;27.20;91.10;;;;;;5094272;28;20750;-49
2022/06/03 13:52:28;;;;;;;3.78;2.33;;;27.60;92.40;;;;;;5075965;28;20212;-50
2022/06/03 13:55:05;;;;;;;2.78;2.13;;;27.40;90.90;;;;;;5094598;28;20260;-52
2022/06/03 13:57:36;;;;;;;2.80;1.90;;;27.40;90.40;;;;;;5094327;28;20169;-51
2022/06/03 14:00:23;;;;;;;2.85;1.85;;;27.70;91.00;;;;;;5093523;28;20180;-49
2022/06/03 14:02:54;;;;;;;4.35;2.30;;;27.90;90.60;;;;;;5094069;28;20165;-50
2022/06/03 14:05:28;;;;;;;2.95;1.92;;;28.00;90.50;;;;;;5093992;28;20169;-50
2022/06/03 14:08:01;;;;;;;2.30;2.10;;;27.90;88.90;;;;;;5094444;28;20251;-50
2022/06/03 14:10:52;;;;;;;4.45;2.10;;;27.90;88.60;;;;;;5094477;28;20539;-51
2022/06/03 14:13:24;;;;;;;4.38;2.58;;;28.00;89.20;;;;;;5093846;28;20201;-50
2022/06/03 14:16:12;;;;;;;4.72;3.35;;;28.40;90.70;;;;;;5094079;28;20578;-50
2022/06/03 14:18:52;;;;;;;2.63;1.92;;;28.60;89.50;;;;;;5093664;28;20256;-49
2022/06/03 14:21:32;;;;;;;3.33;1.92;;;28.30;89.80;;;;;;5093626;28;20230;-51
2022/06/03 14:24:03;;;;;;;2.42;1.90;;;28.10;88.30;;;;;;5094094;28;20172;-51